KFSD/FSD METAR and TAF weather

Enter ICAO airport designator
Station Type Date Time Source
KFSD METAR 2019/12/07 16:56 UTC NOAA

KFSD 071656Z 18008KT 10SM BKN250 00/M03 A2999 RMK AO2 SLP173 T00001033


Station Type Date Time Source
KFSD Decoded METAR 2019/12/07 16:56 UTC NOAA

SIOUX FALLS FOSS FIELD, SD, United States (KFSD) 43-35N 096-45W 434M
Dec 07, 2019 - 11:56 AM EST / 2019.12.07 1656 UTC
Wind: from the S (180 degrees) at 9 MPH (8 KT):0
Visibility: 10 mile(s):0
Sky conditions: mostly cloudy
Temperature: 32.0 F (0.0 C)
Windchill: 24 F (-4 C):1
Dew Point: 26.1 F (-3.3 C)
Relative Humidity: 78%
Pressure (altimeter): 29.99 in. Hg (1015 hPa)
ob: KFSD 071656Z 18008KT 10SM BKN250 00/M03 A2999 RMK AO2 SLP173 T00001033
cycle: 17

Station Type Date Time Source
KFSD TAF 2019/12/07 18:27 UTC NOAA

TAF KFSD 071725Z 0718/0818 18011G16KT P6SM BKN250
FM072300 19013G20KT P6SM SCT250 WS010/22040KT
FM080200 21014G22KT P6SM SCT250
FM080500 24009KT P6SM SCT250
FM080800 27006KT P6SM BKN250

Example: see airport list